Time;durP1;ratioP1;P1;durP2;ratioP2;P2;SDS_P1;SDS_P2;PMS_P1;PMS_P2;Temp;Humidity;BMP_temperature;BMP_pressure;BME280_temperature;BME280_humidity;BME280_pressure;Samples;Min_cycle;Max_cycle;Signal;HPM_P1;HPM_P2
2023/09/15 00:00:50;;;;;;;;;;;;;;;15.02;100.00;100893.66;185528;1233;43612;-64
2023/09/15 00:05:12;;;;;;;;;;;;;;;14.99;100.00;100899.14;185703;1232;44733;-63
2023/09/15 00:09:15;;;;;;;;;;;;;;;14.98;100.00;100898.09;185663;1233;43275;-63
2023/09/15 00:13:19;;;;;;;;;;;;;;;14.92;100.00;100898.52;184668;1233;1441625;-63
2023/09/15 00:17:27;;;;;;;;;;;;;;;15.01;100.00;100901.45;185612;1233;45639;-63
2023/09/15 00:21:29;;;;;;;;;;;;;;;15.17;100.00;100902.50;185908;1234;43247;-63
2023/09/15 00:25:33;;;;;;;;;;;;;;;15.30;100.00;100905.42;185923;1234;43335;-64
2023/09/15 00:29:47;;;;;;;;;;;;;;;15.41;100.00;100899.36;185414;1235;45602;-63
2023/09/15 00:33:48;;;;;;;;;;;;;;;15.50;100.00;100899.86;185511;1234;58141;-63
2023/09/15 00:37:55;;;;;;;;;;;;;;;15.67;100.00;100900.79;185525;1233;45649;-63
2023/09/15 00:41:58;;;;;;;;;;;;;;;15.73;100.00;100901.30;185468;1233;43524;-63
2023/09/15 00:46:01;;;;;;;;;;;;;;;15.71;100.00;100901.77;185491;1234;45764;-63
2023/09/15 00:50:08;;;;;;;;;;;;;;;15.72;100.00;100900.69;185569;1234;44528;-63
2023/09/15 00:54:12;;;;;;;;;;;;;;;15.68;100.00;100902.29;185698;1233;58161;-64
2023/09/15 00:58:18;;;;;;;;;;;;;;;15.39;100.00;100902.05;185568;1234;44356;-63
2023/09/15 01:02:49;;;;;;;;;;;;;;;15.11;100.00;100905.00;185799;1233;44566;-62
2023/09/15 01:06:53;;;;;;;;;;;;;;;14.91;100.00;100901.65;185796;1233;43628;-64
2023/09/15 01:10:55;;;;;;;;;;;;;;;14.77;100.00;100902.46;185778;1233;44300;-62
2023/09/15 01:14:58;;;;;;;;;;;;;;;14.74;100.00;100899.23;185660;1234;58072;-63
2023/09/15 01:19:18;;;;;;;;;;;;;;;14.69;100.00;100900.16;185700;1233;44894;-63
2023/09/15 01:23:20;;;;;;;;;;;;;;;14.62;100.00;100902.23;185609;1234;43610;-63
2023/09/15 01:27:46;;;;;;;;;;;;;;;14.61;100.00;100902.12;185613;1234;44320;-63
2023/09/15 01:31:50;;;;;;;;;;;;;;;14.69;100.00;100901.77;185572;1234;44296;-64
2023/09/15 01:35:59;;;;;;;;;;;;;;;14.73;100.00;100904.42;185330;1233;58200;-63
2023/09/15 01:40:05;;;;;;;;;;;;;;;14.68;100.00;100902.70;185504;1235;45738;-64
2023/09/15 01:44:09;;;;;;;;;;;;;;;14.50;100.00;100905.61;185813;1234;43289;-63
2023/09/15 01:48:11;;;;;;;;;;;;;;;14.37;100.00;100905.98;185514;1233;45598;-63
2023/09/15 01:52:15;;;;;;;;;;;;;;;14.32;100.00;100908.55;185468;1234;45689;-63
2023/09/15 01:56:19;;;;;;;;;;;;;;;14.20;100.00;100904.09;185544;1233;60965;-63
2023/09/15 02:00:21;;;;;;;;;;;;;;;14.08;100.00;100907.98;185506;1233;44834;-64
2023/09/15 02:04:23;;;;;;;;;;;;;;;13.94;100.00;100905.75;185543;1233;43575;-63
2023/09/15 02:08:34;;;;;;;;;;;;;;;13.88;100.00;100908.23;185614;1233;43461;-63
2023/09/15 02:12:39;;;;;;;;;;;;;;;13.81;100.00;100905.42;185579;1234;43249;-63
2023/09/15 02:16:42;;;;;;;;;;;;;;;13.73;100.00;100901.83;185611;1233;57931;-63
2023/09/15 02:20:52;;;;;;;;;;;;;;;13.76;100.00;100897.85;185543;1234;45828;-63
2023/09/15 02:24:54;;;;;;;;;;;;;;;13.84;100.00;100901.67;185382;1234;44259;-64
2023/09/15 02:28:56;;;;;;;;;;;;;;;13.98;100.00;100907.38;185598;1233;45658;-64
2023/09/15 02:32:58;;;;;;;;;;;;;;;14.13;100.00;100911.30;185556;1234;45686;-63
2023/09/15 02:37:03;;;;;;;;;;;;;;;14.31;100.00;100916.12;185540;1233;58236;-64
2023/09/15 02:46:17;;;;;;;;;;;;;;;14.31;100.00;100923.80;185614;1233;43277;-64
2023/09/15 02:50:49;;;;;;;;;;;;;;;14.34;100.00;100922.01;185527;1232;45771;-63
2023/09/15 02:54:50;;;;;;;;;;;;;;;14.38;100.00;100922.83;185571;1233;43522;-63
2023/09/15 02:58:52;;;;;;;;;;;;;;;14.45;100.00;100927.09;185623;1234;56941;-63
2023/09/15 03:02:54;;;;;;;;;;;;;;;14.50;100.00;100924.52;185586;1234;45730;-64
2023/09/15 03:06:57;;;;;;;;;;;;;;;14.56;100.00;100923.77;185555;1233;45665;-64
2023/09/15 03:10:59;;;;;;;;;;;;;;;14.61;100.00;100923.73;185441;1233;44914;-64
2023/09/15 03:15:06;;;;;;;;;;;;;;;14.70;100.00;100922.55;185363;1232;45732;-63
2023/09/15 03:19:09;;;;;;;;;;;;;;;14.80;100.00;100921.13;185534;1233;58275;-62
2023/09/15 03:23:11;;;;;;;;;;;;;;;14.89;100.00;100918.95;185515;1232;43270;-59
2023/09/15 03:27:12;;;;;;;;;;;;;;;14.96;100.00;100921.67;185779;1233;43243;-59
2023/09/15 03:31:14;;;;;;;;;;;;;;;14.85;100.00;100921.40;185855;1233;45723;-58
2023/09/15 03:35:54;;;;;;;;;;;;;;;14.70;100.00;100925.61;185909;1232;43462;-58
2023/09/15 03:39:56;;;;;;;;;;;;;;;14.68;100.00;100925.42;185851;1233;58512;-58
2023/09/15 03:44:01;;;;;;;;;;;;;;;14.60;100.00;100928.08;185713;1232;43658;-58
2023/09/15 03:48:09;;;;;;;;;;;;;;;14.49;100.00;100930.26;185707;1233;43386;-59
2023/09/15 03:52:22;;;;;;;;;;;;;;;14.44;100.00;100926.44;185760;1233;43934;-59
2023/09/15 03:56:25;;;;;;;;;;;;;;;14.44;100.00;100927.32;185674;1233;44630;-58
2023/09/15 04:00:26;;;;;;;;;;;;;;;14.36;100.00;100929.94;185760;1233;58201;-59
2023/09/15 04:04:28;;;;;;;;;;;;;;;14.33;100.00;100928.28;185760;1233;44533;-58
2023/09/15 04:08:32;;;;;;;;;;;;;;;14.38;100.00;100920.17;185789;1232;43458;-59
2023/09/15 04:12:34;;;;;;;;;;;;;;;14.52;100.00;100918.04;185751;1232;45841;-59
2023/09/15 04:16:37;;;;;;;;;;;;;;;14.63;100.00;100920.30;185568;1232;45605;-58
2023/09/15 04:20:45;;;;;;;;;;;;;;;14.72;100.00;100922.95;185761;1233;57853;-58
2023/09/15 04:25:20;;;;;;;;;;;;;;;14.75;100.00;100923.04;185781;1233;44655;-58
2023/09/15 04:29:23;;;;;;;;;;;;;;;14.89;100.00;100928.20;185889;1233;45700;-59
2023/09/15 04:33:24;;;;;;;;;;;;;;;14.98;100.00;100928.48;185757;1233;44343;-59
2023/09/15 04:37:26;;;;;;;;;;;;;;;15.02;100.00;100929.02;185771;1234;43273;-58
2023/09/15 04:41:28;;;;;;;;;;;;;;;15.03;100.00;100932.16;185909;1233;58229;-59
2023/09/15 04:45:31;;;;;;;;;;;;;;;15.08;100.00;100934.36;185658;1232;43567;-59
2023/09/15 04:49:32;;;;;;;;;;;;;;;15.14;100.00;100936.36;185817;1233;45930;-58
2023/09/15 04:53:37;;;;;;;;;;;;;;;15.11;100.00;100935.69;185869;1233;43477;-59
2023/09/15 04:57:38;;;;;;;;;;;;;;;15.16;100.00;100937.42;185866;1232;45143;-59
2023/09/15 05:01:40;;;;;;;;;;;;;;;15.25;100.00;100934.64;185908;1233;58165;-59
2023/09/15 05:05:45;;;;;;;;;;;;;;;15.32;100.00;100938.65;185741;1233;43192;-59
2023/09/15 05:09:47;;;;;;;;;;;;;;;15.18;100.00;100939.36;185934;1233;43481;-59
2023/09/15 05:13:56;;;;;;;;;;;;;;;15.12;100.00;100938.11;185574;1232;46203;-59
2023/09/15 05:18:00;;;;;;;;;;;;;;;15.13;100.00;100936.09;185656;1232;45630;-59
2023/09/15 05:22:05;;;;;;;;;;;;;;;15.27;100.00;100939.86;185610;1233;57682;-58
2023/09/15 05:26:08;;;;;;;;;;;;;;;15.46;100.00;100941.29;185683;1232;44386;-59
2023/09/15 05:30:10;;;;;;;;;;;;;;;15.63;100.00;100943.27;185627;1232;43464;-59
2023/09/15 05:34:15;;;;;;;;;;;;;;;15.77;100.00;100946.70;185922;1233;43360;-59
2023/09/15 05:38:17;;;;;;;;;;;;;;;15.85;100.00;100947.58;185900;1233;43830;-59
2023/09/15 05:42:19;;;;;;;;;;;;;;;15.99;100.00;100952.00;185948;1232;58102;-58
2023/09/15 05:46:21;;;;;;;;;;;;;;;16.12;100.00;100952.75;185792;1232;43524;-59
2023/09/15 05:50:23;;;;;;;;;;;;;;;16.26;100.00;100954.50;185911;1232;46105;-58
2023/09/15 05:54:26;;;;;;;;;;;;;;;16.36;100.00;100956.38;185990;1233;43588;-59
2023/09/15 05:58:58;;;;;;;;;;;;;;;16.45;100.00;100951.25;186113;1233;43299;-60
2023/09/15 06:03:00;;;;;;;;;;;;;;;16.44;100.00;100950.07;186017;1233;58073;-59
2023/09/15 06:07:03;;;;;;;;;;;;;;;16.39;100.00;100953.44;185782;1236;44830;-59
2023/09/15 06:11:06;;;;;;;;;;;;;;;16.39;100.00;100953.77;185995;1233;45618;-59
2023/09/15 06:15:10;;;;;;;;;;;;;;;16.39;100.00;100954.13;185734;1232;43328;-59
2023/09/15 06:19:11;;;;;;;;;;;;;;;16.50;100.00;100957.02;186052;1233;43500;-59
2023/09/15 06:23:39;;;;;;;;;;;;;;;16.71;100.00;100962.89;186018;1234;58247;-59
2023/09/15 06:51:51;;;;;;;;;;;;;;;17.73;100.00;100977.06;185957;1232;44640;-57
2023/09/15 06:55:55;;;;;;;;;;;;;;;17.79;100.00;100973.23;186120;1232;43595;-56
2023/09/15 06:59:57;;;;;;;;;;;;;;;17.84;100.00;100973.10;185941;1232;43260;-56
2023/09/15 07:04:13;;;;;;;;;;;;;;;17.90;100.00;100978.83;186022;1234;43392;-56
2023/09/15 07:08:15;;;;;;;;;;;;;;;18.04;100.00;100977.91;185923;1232;57325;-56
2023/09/15 07:12:17;;;;;;;;;;;;;;;18.19;100.00;100975.11;185984;1234;44697;-56
2023/09/15 07:16:19;;;;;;;;;;;;;;;18.48;100.00;100968.20;185902;1232;44581;-56
2023/09/15 07:20:21;;;;;;;;;;;;;;;18.86;100.00;100966.25;185835;1236;44856;-57
2023/09/15 07:24:25;;;;;;;;;;;;;;;19.14;100.00;100974.73;185902;1232;43203;-56
2023/09/15 07:28:28;;;;;;;;;;;;;;;19.29;100.00;100971.90;185691;1232;58420;-56
2023/09/15 07:32:30;;;;;;;;;;;;;;;19.37;99.70;100973.80;185979;1232;45677;-57
2023/09/15 07:36:33;;;;;;;;;;;;;;;19.39;99.37;100979.13;185931;1232;44531;-56
2023/09/15 07:40:40;;;;;;;;;;;;;;;19.52;100.00;100973.08;185812;1232;45773;-57
2023/09/15 07:44:43;;;;;;;;;;;;;;;19.68;99.88;100974.72;185971;1232;43217;-56
2023/09/15 07:48:45;;;;;;;;;;;;;;;19.92;99.56;100974.12;185929;1232;58705;-57
2023/09/15 07:52:47;;;;;;;;;;;;;;;20.18;99.93;100974.82;186002;1233;43309;-56
2023/09/15 07:56:49;;;;;;;;;;;;;;;20.65;98.59;100967.14;185998;1232;45738;-56
2023/09/15 08:00:57;;;;;;;;;;;;;;;21.07;94.92;100969.88;185991;1233;43621;-57
2023/09/15 08:05:04;;;;;;;;;;;;;;;21.48;92.00;100976.90;185784;1232;43354;-60
2023/09/15 08:09:06;;;;;;;;;;;;;;;21.70;90.46;100977.69;185810;1233;58885;-60
2023/09/15 08:13:08;;;;;;;;;;;;;;;21.82;89.80;100980.83;185802;1232;44817;-59
2023/09/15 08:17:10;;;;;;;;;;;;;;;21.86;89.25;100979.83;185604;1233;45647;-59
2023/09/15 08:21:32;;;;;;;;;;;;;;;21.91;88.78;100979.09;185725;1232;43487;-59
2023/09/15 08:25:34;;;;;;;;;;;;;;;21.91;89.44;100978.65;185579;1236;45761;-59
2023/09/15 08:29:36;;;;;;;;;;;;;;;21.98;90.65;100978.92;185741;1235;57964;-59
2023/09/15 08:33:37;;;;;;;;;;;;;;;22.11;89.65;100969.08;185918;1233;44439;-59
2023/09/15 08:37:39;;;;;;;;;;;;;;;22.00;88.64;100971.90;185929;1232;44362;-59
2023/09/15 08:41:58;;;;;;;;;;;;;;;21.90;90.50;100973.09;186003;1234;43566;-59
2023/09/15 08:46:03;;;;;;;;;;;;;;;21.74;90.41;100972.58;186059;1232;43905;-61
2023/09/15 08:50:09;;;;;;;;;;;;;;;21.76;91.97;100971.49;185751;1232;58100;-58
2023/09/15 08:54:11;;;;;;;;;;;;;;;21.79;92.44;100968.20;186045;1233;43478;-58
2023/09/15 08:58:20;;;;;;;;;;;;;;;21.82;91.71;100965.09;185956;1235;43828;-59
2023/09/15 09:02:26;;;;;;;;;;;;;;;21.90;92.71;100960.64;185903;1232;45644;-59
2023/09/15 09:06:34;;;;;;;;;;;;;;;21.92;92.85;100963.08;186032;1232;43343;-59
2023/09/15 09:10:37;;;;;;;;;;;;;;;21.95;92.42;100961.21;185972;1233;58851;-59
2023/09/15 09:14:39;;;;;;;;;;;;;;;21.96;92.69;100959.10;185929;1233;43385;-58
2023/09/15 09:18:41;;;;;;;;;;;;;;;21.88;93.53;100960.85;185830;1233;44667;-59
2023/09/15 09:22:45;;;;;;;;;;;;;;;21.75;94.43;100958.36;185939;1232;44479;-58
2023/09/15 09:26:54;;;;;;;;;;;;;;;21.68;95.69;100963.52;185952;1232;43999;-59
2023/09/15 09:30:57;;;;;;;;;;;;;;;21.71;94.78;100961.17;186034;1233;58525;-58
2023/09/15 09:35:07;;;;;;;;;;;;;;;21.67;95.51;100961.27;185901;1234;44665;-59
2023/09/15 09:43:49;;;;;;;;;;;;;;;21.75;96.33;100958.20;186347;1230;43738;-58
2023/09/15 09:47:53;;;;;;;;;;;;;;;21.99;94.82;100954.98;186520;1231;43765;-58
2023/09/15 09:52:01;;;;;;;;;;;;;;;22.18;93.27;100949.71;186512;1231;58021;-58
2023/09/15 09:56:07;;;;;;;;;;;;;;;22.22;92.05;100946.52;186328;1231;43370;-57
2023/09/15 10:00:17;;;;;;;;;;;;;;;22.30;92.87;100944.83;186432;1231;45023;-57
2023/09/15 10:04:23;;;;;;;;;;;;;;;22.23;90.51;100943.14;186383;1231;43434;-57
2023/09/15 10:08:30;;;;;;;;;;;;;;;22.21;90.78;100939.41;186373;1230;43242;-58
2023/09/15 10:12:33;;;;;;;;;;;;;;;22.23;91.21;100937.89;186272;1232;58375;-58
2023/09/15 10:17:04;;;;;;;;;;;;;;;22.27;92.04;100930.32;186460;1231;43776;-58
2023/09/15 10:21:14;;;;;;;;;;;;;;;22.26;91.36;100926.07;186429;1230;43566;-57
2023/09/15 10:25:20;;;;;;;;;;;;;;;22.34;92.42;100922.83;186328;1231;43732;-57
2023/09/15 10:29:29;;;;;;;;;;;;;;;22.30;91.68;100923.27;186452;1230;44529;-57
2023/09/15 10:33:30;;;;;;;;;;;;;;;22.15;90.42;100924.38;186345;1231;57591;-58
2023/09/15 10:37:50;;;;;;;;;;;;;;;22.10;91.73;100927.13;186314;1231;43951;-58
2023/09/15 10:41:55;;;;;;;;;;;;;;;22.09;90.33;100924.17;186284;1231;45012;-58
2023/09/15 10:46:01;;;;;;;;;;;;;;;22.27;89.73;100917.16;186291;1232;44145;-59
2023/09/15 10:50:07;;;;;;;;;;;;;;;22.43;89.27;100915.83;186506;1232;45806;-58
2023/09/15 10:54:12;;;;;;;;;;;;;;;22.61;87.45;100911.81;186480;1231;57901;-57
2023/09/15 10:58:16;;;;;;;;;;;;;;;22.83;87.40;100907.29;186313;1231;44751;-58
2023/09/15 11:02:19;;;;;;;;;;;;;;;23.07;87.60;100908.58;186186;1232;43356;-58
2023/09/15 11:06:28;;;;;;;;;;;;;;;23.19;83.23;100914.01;185947;1231;45124;-58
2023/09/15 11:10:57;;;;;;;;;;;;;;;23.29;81.99;100911.13;185940;1230;45652;-58
2023/09/15 11:15:02;;;;;;;;;;;;;;;23.33;82.23;100906.73;186277;1230;56976;-58
2023/09/15 11:19:04;;;;;;;;;;;;;;;23.37;81.71;100907.46;186403;1230;44640;-58
2023/09/15 11:23:06;;;;;;;;;;;;;;;23.54;82.70;100897.33;186407;1231;44450;-58
2023/09/15 11:27:08;;;;;;;;;;;;;;;23.75;83.46;100895.19;186293;1232;44164;-58
2023/09/15 11:31:09;;;;;;;;;;;;;;;23.92;80.23;100887.91;186245;1231;45776;-57
2023/09/15 11:35:13;;;;;;;;;;;;;;;23.99;77.45;100886.48;186255;1232;58120;-58
2023/09/15 11:39:23;;;;;;;;;;;;;;;24.04;76.30;100882.02;186349;1231;44475;-58
2023/09/15 11:43:25;;;;;;;;;;;;;;;24.05;75.51;100881.42;186190;1234;45726;-58
2023/09/15 11:47:31;;;;;;;;;;;;;;;23.94;75.88;100879.17;186417;1231;43588;-59
2023/09/15 11:51:36;;;;;;;;;;;;;;;23.83;75.02;100874.23;186398;1232;43434;-58
2023/09/15 11:55:38;;;;;;;;;;;;;;;23.79;74.94;100872.27;186367;1231;58314;-57
2023/09/15 11:59:39;;;;;;;;;;;;;;;23.74;75.29;100867.22;186230;1230;43356;-59
2023/09/15 12:03:48;;;;;;;;;;;;;;;23.66;76.06;100868.14;186478;1231;43256;-58
2023/09/15 12:07:52;;;;;;;;;;;;;;;23.48;75.38;100867.86;186370;1230;43440;-58
2023/09/15 12:11:57;;;;;;;;;;;;;;;23.35;77.40;100867.83;186304;1231;45629;-58
2023/09/15 12:15:59;;;;;;;;;;;;;;;23.33;77.55;100865.73;178369;1232;10172296;-57
2023/09/15 12:20:04;;;;;;;;;;;;;;;23.35;78.59;100866.11;186425;1230;45667;-57
2023/09/15 12:24:10;;;;;;;;;;;;;;;23.25;78.82;100865.25;186526;1232;44052;-58
2023/09/15 12:28:16;;;;;;;;;;;;;;;23.19;79.33;100868.54;186585;1231;43527;-57
2023/09/15 12:32:31;;;;;;;;;;;;;;;23.30;78.39;100862.27;186189;1230;57485;-58
2023/09/15 12:36:32;;;;;;;;;;;;;;;23.45;77.68;100855.33;186436;1232;44197;-57
2023/09/15 12:40:34;;;;;;;;;;;;;;;23.54;75.95;100846.77;186272;1231;45726;-58
2023/09/15 12:44:36;;;;;;;;;;;;;;;23.46;76.82;100844.61;186289;1231;44580;-58
2023/09/15 12:48:39;;;;;;;;;;;;;;;23.54;78.56;100837.06;186230;1230;43238;-58
2023/09/15 12:52:44;;;;;;;;;;;;;;;23.57;77.78;100836.50;186209;1230;58555;-58
2023/09/15 12:56:52;;;;;;;;;;;;;;;23.57;77.29;100825.64;186335;1231;43248;-58
2023/09/15 13:00:58;;;;;;;;;;;;;;;23.65;77.37;100813.78;186268;1231;44282;-58
2023/09/15 13:09:51;;;;;;;;;;;;;;;23.68;75.78;100808.61;186428;1230;44256;-58
2023/09/15 13:14:19;;;;;;;;;;;;;;;23.82;75.56;100802.46;186439;1231;58354;-57
2023/09/15 13:18:23;;;;;;;;;;;;;;;23.95;74.63;100802.23;186335;1231;45841;-59
2023/09/15 13:22:28;;;;;;;;;;;;;;;23.70;72.94;100804.62;186450;1230;43365;-58
2023/09/15 13:26:33;;;;;;;;;;;;;;;23.48;73.21;100797.63;186347;1230;43938;-58
2023/09/15 13:30:35;;;;;;;;;;;;;;;23.33;75.67;100791.44;186209;1232;44235;-58
2023/09/15 13:34:40;;;;;;;;;;;;;;;23.31;77.20;100788.52;186208;1232;58059;-59
2023/09/15 13:38:41;;;;;;;;;;;;;;;23.29;75.07;100787.52;186294;1230;45748;-57
2023/09/15 13:42:44;;;;;;;;;;;;;;;23.23;76.29;100787.01;186192;1231;43523;-58
2023/09/15 13:46:48;;;;;;;;;;;;;;;23.10;75.18;100788.90;186450;1230;43701;-58
2023/09/15 13:50:52;;;;;;;;;;;;;;;23.24;73.38;100781.92;186258;1231;43435;-58
2023/09/15 13:54:55;;;;;;;;;;;;;;;23.28;71.16;100776.83;186297;1231;56952;-58
2023/09/15 13:58:57;;;;;;;;;;;;;;;23.25;72.36;100769.21;186381;1231;43926;-58
2023/09/15 14:02:59;;;;;;;;;;;;;;;23.41;72.30;100767.70;186285;1231;43566;-59
2023/09/15 14:07:06;;;;;;;;;;;;;;;23.55;70.43;100768.40;186102;1232;45796;-58
2023/09/15 14:11:12;;;;;;;;;;;;;;;23.53;69.95;100770.90;185860;1232;45956;-58
2023/09/15 14:15:14;;;;;;;;;;;;;;;23.52;71.67;100771.52;186141;1232;58057;-59
2023/09/15 14:19:17;;;;;;;;;;;;;;;23.48;71.38;100768.78;186352;1230;43587;-59
2023/09/15 14:23:21;;;;;;;;;;;;;;;23.46;71.65;100764.41;186192;1231;44709;-59
2023/09/15 14:27:23;;;;;;;;;;;;;;;23.55;72.01;100764.30;186335;1231;44671;-59
2023/09/15 14:31:31;;;;;;;;;;;;;;;23.71;71.15;100755.23;186245;1230;43541;-57
2023/09/15 14:35:33;;;;;;;;;;;;;;;23.79;69.60;100751.10;186350;1231;59165;-59
2023/09/15 14:39:40;;;;;;;;;;;;;;;23.84;68.52;100753.75;186449;1231;43276;-58
2023/09/15 14:43:44;;;;;;;;;;;;;;;23.74;69.07;100752.12;186463;1231;43268;-57
2023/09/15 14:47:49;;;;;;;;;;;;;;;23.63;69.20;100749.98;186396;1230;43180;-58
2023/09/15 14:51:53;;;;;;;;;;;;;;;23.51;70.92;100748.20;186321;1231;43303;-57
2023/09/15 14:56:00;;;;;;;;;;;;;;;23.32;70.31;100740.66;186385;1231;58205;-58
2023/09/15 15:00:03;;;;;;;;;;;;;;;23.14;71.50;100734.80;186379;1230;43525;-58
2023/09/15 15:04:04;;;;;;;;;;;;;;;23.04;72.15;100732.09;186502;1230;43239;-59
2023/09/15 15:08:09;;;;;;;;;;;;;;;22.96;73.35;100734.05;186420;1230;45811;-58
2023/09/15 15:12:15;;;;;;;;;;;;;;;22.92;73.69;100730.68;186311;1231;45617;-60
2023/09/15 15:16:18;;;;;;;;;;;;;;;22.92;73.15;100725.33;186348;1231;58254;-59
2023/09/15 15:20:20;;;;;;;;;;;;;;;22.88;74.33;100724.93;186317;1231;44573;-58
2023/09/15 15:24:23;;;;;;;;;;;;;;;22.84;75.10;100724.56;186388;1230;43350;-58
2023/09/15 15:28:28;;;;;;;;;;;;;;;22.84;76.05;100724.57;186470;1230;45700;-59
2023/09/15 15:32:30;;;;;;;;;;;;;;;22.77;75.33;100722.33;186248;1231;43343;-58
2023/09/15 15:36:32;;;;;;;;;;;;;;;22.78;76.02;100716.55;186311;1231;57453;-59
2023/09/15 15:40:33;;;;;;;;;;;;;;;22.80;75.99;100717.45;186188;1230;45867;-58
2023/09/15 15:44:37;;;;;;;;;;;;;;;22.90;75.65;100715.27;186189;1230;44394;-59
2023/09/15 15:48:39;;;;;;;;;;;;;;;22.99;74.77;100711.45;186280;1231;44370;-57
2023/09/15 15:52:41;;;;;;;;;;;;;;;23.08;74.05;100710.34;186484;1231;45638;-58
2023/09/15 15:56:45;;;;;;;;;;;;;;;23.13;74.22;100716.75;186403;1231;57888;-58
2023/09/15 16:00:50;;;;;;;;;;;;;;;23.16;73.28;100717.44;186442;1231;45853;-58
2023/09/15 16:04:52;;;;;;;;;;;;;;;23.10;72.34;100718.33;186267;1230;46117;-58
2023/09/15 16:08:54;;;;;;;;;;;;;;;23.05;73.62;100716.96;186393;1231;44725;-58
2023/09/15 16:12:56;;;;;;;;;;;;;;;22.95;73.81;100720.59;186233;1230;44141;-57
2023/09/15 16:16:58;;;;;;;;;;;;;;;22.82;73.73;100724.35;186330;1230;58451;-58
2023/09/15 16:21:10;;;;;;;;;;;;;;;22.71;74.90;100727.30;186315;1231;45767;-58
2023/09/15 16:25:12;;;;;;;;;;;;;;;22.60;75.97;100725.77;186360;1231;43284;-58
2023/09/15 16:29:14;;;;;;;;;;;;;;;22.46;75.77;100728.89;186299;1231;45770;-58
2023/09/15 16:33:24;;;;;;;;;;;;;;;22.35;77.23;100728.22;186438;1230;45655;-58
2023/09/15 16:37:26;;;;;;;;;;;;;;;22.23;78.26;100734.45;186384;1234;57635;-57
2023/09/15 16:41:31;;;;;;;;;;;;;;;22.12;78.57;100731.53;186219;1232;45717;-59
2023/09/15 16:45:33;;;;;;;;;;;;;;;21.97;78.70;100732.58;186194;1231;43558;-58
2023/09/15 16:49:35;;;;;;;;;;;;;;;21.85;79.17;100732.26;186354;1230;44624;-58
2023/09/15 16:53:37;;;;;;;;;;;;;;;21.75;79.67;100732.14;186406;1230;45059;-58
2023/09/15 16:57:39;;;;;;;;;;;;;;;21.69;80.46;100730.07;186266;1230;58227;-58
2023/09/15 17:06:22;;;;;;;;;;;;;;;21.41;81.26;100730.66;186376;1230;43292;-58
2023/09/15 17:10:25;;;;;;;;;;;;;;;21.28;81.62;100733.70;186066;1231;43718;-57
2023/09/15 17:14:27;;;;;;;;;;;;;;;21.15;83.18;100740.52;186161;1231;43251;-57
2023/09/15 17:18:30;;;;;;;;;;;;;;;21.01;83.49;100740.69;186266;1231;57677;-59
2023/09/15 17:22:32;;;;;;;;;;;;;;;20.93;84.30;100742.02;186368;1230;43714;-58
2023/09/15 17:26:49;;;;;;;;;;;;;;;20.86;85.34;100745.48;186444;1231;43422;-57
2023/09/15 17:30:53;;;;;;;;;;;;;;;20.77;86.18;100749.46;186243;1231;43318;-57
2023/09/15 17:34:55;;;;;;;;;;;;;;;20.68;86.45;100747.83;186406;1230;44417;-57
2023/09/15 17:39:30;;;;;;;;;;;;;;;20.57;86.35;100751.27;186396;1231;58227;-57
2023/09/15 17:43:44;;;;;;;;;;;;;;;20.44;85.97;100753.16;186316;1231;43305;-58
2023/09/15 17:47:49;;;;;;;;;;;;;;;20.32;86.06;100749.92;186380;1230;43483;-57
2023/09/15 17:51:58;;;;;;;;;;;;;;;20.23;86.42;100748.33;186296;1230;44579;-57
2023/09/15 17:56:00;;;;;;;;;;;;;;;20.14;86.95;100748.99;186468;1230;45732;-57
2023/09/15 18:00:03;;;;;;;;;;;;;;;20.02;87.23;100750.54;186365;1230;59791;-57
2023/09/15 18:04:43;;;;;;;;;;;;;;;19.90;86.78;100750.65;186430;1231;44329;-57
2023/09/15 18:08:50;;;;;;;;;;;;;;;19.74;85.78;100750.48;186268;1230;45669;-56
2023/09/15 18:13:19;;;;;;;;;;;;;;;19.61;85.89;100753.02;186351;1231;43807;-56
2023/09/15 18:17:23;;;;;;;;;;;;;;;19.50;85.66;100755.48;186257;1230;43257;-56
2023/09/15 18:21:25;;;;;;;;;;;;;;;19.39;85.95;100757.20;186405;1231;57153;-56
2023/09/15 18:25:29;;;;;;;;;;;;;;;19.23;86.03;100764.68;186254;1231;43227;-57
2023/09/15 18:29:30;;;;;;;;;;;;;;;19.10;87.04;100765.94;186398;1232;44705;-57
2023/09/15 18:33:58;;;;;;;;;;;;;;;18.98;87.72;100770.56;186292;1231;43203;-57
2023/09/15 18:38:02;;;;;;;;;;;;;;;18.82;88.66;100765.02;186352;1231;44292;-57
2023/09/15 18:42:04;;;;;;;;;;;;;;;18.67;89.72;100764.35;186269;1230;59659;-57
2023/09/15 18:46:34;;;;;;;;;;;;;;;18.51;91.05;100764.61;186325;1231;45748;-58
2023/09/15 18:50:37;;;;;;;;;;;;;;;18.39;91.04;100761.62;185975;1230;44947;-57
2023/09/15 18:54:46;;;;;;;;;;;;;;;18.25;91.36;100761.83;186297;1231;43414;-57
2023/09/15 18:58:49;;;;;;;;;;;;;;;18.11;91.37;100764.35;186174;1230;43212;-58
2023/09/15 19:02:51;;;;;;;;;;;;;;;17.98;91.15;100764.63;186207;1230;59528;-58
2023/09/15 19:06:58;;;;;;;;;;;;;;;17.91;91.41;100765.40;186271;1231;43285;-58
2023/09/15 19:11:03;;;;;;;;;;;;;;;17.83;91.29;100768.12;186310;1230;43569;-58
2023/09/15 19:15:25;;;;;;;;;;;;;;;17.78;91.15;100770.15;186145;1232;43987;-58
2023/09/15 19:19:31;;;;;;;;;;;;;;;17.75;90.87;100772.98;186323;1230;44262;-58
2023/09/15 19:23:33;;;;;;;;;;;;;;;17.68;90.12;100775.08;186288;1231;58099;-58
2023/09/15 19:27:36;;;;;;;;;;;;;;;17.61;90.19;100777.16;186264;1231;43609;-57
2023/09/15 19:31:38;;;;;;;;;;;;;;;17.50;90.48;100772.97;186272;1231;45867;-57
2023/09/15 19:35:41;;;;;;;;;;;;;;;17.46;90.09;100773.08;186468;1234;45659;-58
2023/09/15 19:39:44;;;;;;;;;;;;;;;17.39;90.14;100774.72;186390;1231;44178;-58
2023/09/15 19:43:46;;;;;;;;;;;;;;;17.27;90.15;100773.04;186236;1230;59286;-57
2023/09/15 19:47:49;;;;;;;;;;;;;;;17.21;90.29;100772.38;186331;1230;45647;-57
2023/09/15 19:51:52;;;;;;;;;;;;;;;17.17;91.08;100768.02;186327;1231;45929;-58
2023/09/15 19:56:14;;;;;;;;;;;;;;;17.08;91.70;100776.36;186375;1231;43885;-57
2023/09/15 20:00:17;;;;;;;;;;;;;;;17.00;92.36;100774.51;186355;1231;43257;-58
2023/09/15 20:04:20;;;;;;;;;;;;;;;16.97;91.67;100773.53;186432;1230;59687;-57
2023/09/15 20:08:25;;;;;;;;;;;;;;;16.93;91.44;100773.71;186264;1230;43733;-58
2023/09/15 20:12:27;;;;;;;;;;;;;;;16.90;90.93;100777.27;186391;1231;43542;-58
2023/09/15 20:16:29;;;;;;;;;;;;;;;16.89;90.42;100770.04;186264;1231;44576;-57
2023/09/15 20:20:31;;;;;;;;;;;;;;;16.86;89.01;100764.27;186447;1230;45642;-58
2023/09/15 20:24:42;;;;;;;;;;;;;;;16.86;88.95;100762.29;186267;1230;58258;-57
2023/09/15 20:28:46;;;;;;;;;;;;;;;16.82;89.02;100760.65;186418;1230;43192;-58
2023/09/15 20:32:50;;;;;;;;;;;;;;;16.84;88.42;100756.77;186401;1231;44077;-58
2023/09/15 20:37:00;;;;;;;;;;;;;;;16.79;87.78;100754.54;186410;1230;44264;-58
2023/09/15 20:41:04;;;;;;;;;;;;;;;16.76;86.86;100751.46;186255;1230;44973;-58
2023/09/15 20:45:33;;;;;;;;;;;;;;;16.74;86.68;100752.36;186500;1231;58577;-57
2023/09/15 20:49:35;;;;;;;;;;;;;;;16.74;87.22;100749.14;186430;1231;44036;-58
2023/09/15 20:53:59;;;;;;;;;;;;;;;16.70;87.65;100748.09;186292;1230;45633;-58
2023/09/15 20:58:03;;;;;;;;;;;;;;;16.62;88.30;100744.84;186192;1232;44637;-57
2023/09/15 21:27:14;;;;;;;;;;;;;;;15.95;91.51;100743.29;181474;1261;46014;-56
2023/09/15 21:31:17;;;;;;;;;;;;;;;15.92;91.49;100741.42;184792;1241;43697;-56
2023/09/15 21:35:20;;;;;;;;;;;;;;;15.93;91.60;100742.80;185240;1238;43705;-56
2023/09/15 21:39:23;;;;;;;;;;;;;;;15.89;91.81;100741.55;185067;1238;46109;-57
2023/09/15 21:43:28;;;;;;;;;;;;;;;15.81;92.86;100737.05;185088;1238;58981;-57
2023/09/15 21:47:32;;;;;;;;;;;;;;;15.72;93.14;100739.53;185193;1238;45658;-57